sensor_id;sensor_type;location;lat;lon;timestamp;P1;durP1;ratioP1;P2;durP2;ratioP2
58878;SDS011;44660;42.664;23.266;2023-02-15T00:01:56;51.55;;;25.10;;
58878;SDS011;44660;42.664;23.266;2023-02-15T00:04:23;41.17;;;22.83;;
58878;SDS011;44660;42.664;23.266;2023-02-15T00:07:09;49.40;;;23.85;;
58878;SDS011;44660;42.664;23.266;2023-02-15T00:09:35;49.47;;;24.13;;
58878;SDS011;44660;42.664;23.266;2023-02-15T00:12:00;46.30;;;23.40;;
58878;SDS011;44660;42.664;23.266;2023-02-15T00:14:26;43.35;;;23.38;;
58878;SDS011;44660;42.664;23.266;2023-02-15T00:16:52;49.55;;;24.20;;
58878;SDS011;44660;42.664;23.266;2023-02-15T00:19:20;43.58;;;22.27;;
58878;SDS011;44660;42.664;23.266;2023-02-15T00:21:46;46.28;;;23.25;;
58878;SDS011;44660;42.664;23.266;2023-02-15T00:24:12;45.83;;;22.67;;
58878;SDS011;44660;42.664;23.266;2023-02-15T00:26:40;45.03;;;23.40;;
58878;SDS011;44660;42.664;23.266;2023-02-15T00:29:07;44.28;;;23.40;;
58878;SDS011;44660;42.664;23.266;2023-02-15T00:31:33;45.70;;;23.10;;
58878;SDS011;44660;42.664;23.266;2023-02-15T00:34:11;44.05;;;22.90;;
58878;SDS011;44660;42.664;23.266;2023-02-15T00:36:36;43.22;;;23.35;;
58878;SDS011;44660;42.664;23.266;2023-02-15T00:39:02;41.65;;;22.15;;
58878;SDS011;44660;42.664;23.266;2023-02-15T00:41:29;43.88;;;23.05;;
58878;SDS011;44660;42.664;23.266;2023-02-15T00:43:55;46.90;;;23.10;;
58878;SDS011;44660;42.664;23.266;2023-02-15T00:46:21;41.72;;;22.45;;
58878;SDS011;44660;42.664;23.266;2023-02-15T00:48:46;41.67;;;21.67;;
58878;SDS011;44660;42.664;23.266;2023-02-15T00:51:12;40.95;;;21.52;;
58878;SDS011;44660;42.664;23.266;2023-02-15T00:53:37;45.40;;;22.30;;
58878;SDS011;44660;42.664;23.266;2023-02-15T00:56:02;46.17;;;22.35;;
58878;SDS011;44660;42.664;23.266;2023-02-15T00:58:28;39.15;;;21.45;;
58878;SDS011;44660;42.664;23.266;2023-02-15T01:00:53;42.45;;;22.15;;
58878;SDS011;44660;42.664;23.266;2023-02-15T01:03:19;43.63;;;22.02;;
58878;SDS011;44660;42.664;23.266;2023-02-15T01:05:46;36.92;;;20.98;;
58878;SDS011;44660;42.664;23.266;2023-02-15T01:08:12;39.97;;;21.45;;
58878;SDS011;44660;42.664;23.266;2023-02-15T01:10:38;44.55;;;23.25;;
58878;SDS011;44660;42.664;23.266;2023-02-15T01:13:04;38.97;;;21.70;;
58878;SDS011;44660;42.664;23.266;2023-02-15T01:15:30;43.83;;;22.83;;
58878;SDS011;44660;42.664;23.266;2023-02-15T01:17:56;38.22;;;21.45;;
58878;SDS011;44660;42.664;23.266;2023-02-15T01:20:24;41.58;;;22.02;;
58878;SDS011;44660;42.664;23.266;2023-02-15T01:22:52;39.05;;;21.67;;
58878;SDS011;44660;42.664;23.266;2023-02-15T01:25:18;40.63;;;21.40;;
58878;SDS011;44660;42.664;23.266;2023-02-15T01:27:45;41.42;;;21.63;;
58878;SDS011;44660;42.664;23.266;2023-02-15T01:30:11;40.40;;;21.83;;
58878;SDS011;44660;42.664;23.266;2023-02-15T01:32:38;41.10;;;21.48;;
58878;SDS011;44660;42.664;23.266;2023-02-15T01:35:04;41.50;;;21.95;;
58878;SDS011;44660;42.664;23.266;2023-02-15T01:37:30;41.38;;;22.30;;
58878;SDS011;44660;42.664;23.266;2023-02-15T01:39:56;44.03;;;21.65;;
58878;SDS011;44660;42.664;23.266;2023-02-15T01:42:23;38.35;;;21.23;;
58878;SDS011;44660;42.664;23.266;2023-02-15T01:47:37;39.00;;;20.85;;
58878;SDS011;44660;42.664;23.266;2023-02-15T01:53:03;39.67;;;21.50;;
58878;SDS011;44660;42.664;23.266;2023-02-15T01:55:37;42.35;;;21.02;;
58878;SDS011;44660;42.664;23.266;2023-02-15T01:58:06;43.55;;;22.35;;
58878;SDS011;44660;42.664;23.266;2023-02-15T02:00:32;44.13;;;22.27;;
58878;SDS011;44660;42.664;23.266;2023-02-15T02:02:59;41.05;;;21.65;;
58878;SDS011;44660;42.664;23.266;2023-02-15T02:05:25;40.72;;;22.08;;
58878;SDS011;44660;42.664;23.266;2023-02-15T02:07:51;38.78;;;21.75;;
58878;SDS011;44660;42.664;23.266;2023-02-15T02:10:20;40.15;;;21.35;;
58878;SDS011;44660;42.664;23.266;2023-02-15T02:12:51;39.72;;;21.27;;
58878;SDS011;44660;42.664;23.266;2023-02-15T02:15:20;38.73;;;20.53;;
58878;SDS011;44660;42.664;23.266;2023-02-15T02:18:02;38.28;;;20.45;;
58878;SDS011;44660;42.664;23.266;2023-02-15T02:21:14;37.58;;;20.23;;
58878;SDS011;44660;42.664;23.266;2023-02-15T02:24:03;38.50;;;20.80;;
58878;SDS011;44660;42.664;23.266;2023-02-15T02:29:32;37.75;;;20.00;;
58878;SDS011;44660;42.664;23.266;2023-02-15T02:35:15;37.08;;;20.25;;
58878;SDS011;44660;42.664;23.266;2023-02-15T02:38:25;38.45;;;20.67;;
58878;SDS011;44660;42.664;23.266;2023-02-15T02:40:49;39.90;;;20.23;;
58878;SDS011;44660;42.664;23.266;2023-02-15T02:43:33;36.20;;;19.33;;
58878;SDS011;44660;42.664;23.266;2023-02-15T02:46:24;35.92;;;19.40;;
58878;SDS011;44660;42.664;23.266;2023-02-15T02:48:57;41.13;;;21.10;;
58878;SDS011;44660;42.664;23.266;2023-02-15T02:51:23;37.70;;;19.42;;
58878;SDS011;44660;42.664;23.266;2023-02-15T02:53:53;36.35;;;18.70;;
58878;SDS011;44660;42.664;23.266;2023-02-15T02:58:55;35.38;;;18.70;;
58878;SDS011;44660;42.664;23.266;2023-02-15T03:01:31;33.50;;;18.02;;
58878;SDS011;44660;42.664;23.266;2023-02-15T03:04:10;35.75;;;17.67;;
58878;SDS011;44660;42.664;23.266;2023-02-15T03:06:41;34.30;;;18.83;;
58878;SDS011;44660;42.664;23.266;2023-02-15T03:09:23;35.00;;;19.35;;
58878;SDS011;44660;42.664;23.266;2023-02-15T03:11:59;33.20;;;17.52;;
58878;SDS011;44660;42.664;23.266;2023-02-15T03:14:26;34.85;;;18.50;;
58878;SDS011;44660;42.664;23.266;2023-02-15T03:16:52;34.70;;;18.30;;
58878;SDS011;44660;42.664;23.266;2023-02-15T03:19:24;34.55;;;17.70;;
58878;SDS011;44660;42.664;23.266;2023-02-15T03:21:56;35.22;;;18.13;;
58878;SDS011;44660;42.664;23.266;2023-02-15T03:27:14;32.90;;;18.65;;
58878;SDS011;44660;42.664;23.266;2023-02-15T03:29:46;34.08;;;18.35;;
58878;SDS011;44660;42.664;23.266;2023-02-15T03:32:17;33.30;;;18.05;;
58878;SDS011;44660;42.664;23.266;2023-02-15T03:34:43;33.35;;;18.35;;
58878;SDS011;44660;42.664;23.266;2023-02-15T03:37:20;33.95;;;17.48;;
58878;SDS011;44660;42.664;23.266;2023-02-15T03:39:59;33.38;;;18.02;;
58878;SDS011;44660;42.664;23.266;2023-02-15T03:42:49;30.52;;;17.30;;
58878;SDS011;44660;42.664;23.266;2023-02-15T03:45:24;31.08;;;17.55;;
58878;SDS011;44660;42.664;23.266;2023-02-15T03:47:53;31.55;;;17.40;;
58878;SDS011;44660;42.664;23.266;2023-02-15T03:53:14;29.95;;;16.65;;
58878;SDS011;44660;42.664;23.266;2023-02-15T03:55:46;37.00;;;18.83;;
58878;SDS011;44660;42.664;23.266;2023-02-15T03:58:12;32.53;;;17.70;;
58878;SDS011;44660;42.664;23.266;2023-02-15T04:01:40;33.15;;;17.63;;
58878;SDS011;44660;42.664;23.266;2023-02-15T04:04:18;35.00;;;18.10;;
58878;SDS011;44660;42.664;23.266;2023-02-15T04:06:45;35.75;;;18.25;;
58878;SDS011;44660;42.664;23.266;2023-02-15T04:09:11;33.78;;;17.40;;
58878;SDS011;44660;42.664;23.266;2023-02-15T04:11:56;34.88;;;18.23;;
58878;SDS011;44660;42.664;23.266;2023-02-15T04:14:21;34.47;;;18.35;;
58878;SDS011;44660;42.664;23.266;2023-02-15T04:17:06;32.60;;;18.10;;
58878;SDS011;44660;42.664;23.266;2023-02-15T04:19:32;30.63;;;17.20;;
58878;SDS011;44660;42.664;23.266;2023-02-15T04:22:16;33.78;;;18.27;;
58878;SDS011;44660;42.664;23.266;2023-02-15T04:25:00;33.92;;;19.45;;
58878;SDS011;44660;42.664;23.266;2023-02-15T04:27:36;34.75;;;19.17;;
58878;SDS011;44660;42.664;23.266;2023-02-15T04:30:02;34.30;;;18.92;;
58878;SDS011;44660;42.664;23.266;2023-02-15T04:32:28;50.00;;;26.08;;
58878;SDS011;44660;42.664;23.266;2023-02-15T04:34:53;52.65;;;26.30;;
58878;SDS011;44660;42.664;23.266;2023-02-15T04:37:18;44.13;;;22.83;;
58878;SDS011;44660;42.664;23.266;2023-02-15T04:39:44;39.17;;;19.55;;
58878;SDS011;44660;42.664;23.266;2023-02-15T04:42:09;40.28;;;22.15;;
58878;SDS011;44660;42.664;23.266;2023-02-15T04:44:35;34.28;;;19.90;;
58878;SDS011;44660;42.664;23.266;2023-02-15T04:47:00;42.88;;;22.25;;
58878;SDS011;44660;42.664;23.266;2023-02-15T04:49:26;38.63;;;20.58;;
58878;SDS011;44660;42.664;23.266;2023-02-15T04:51:54;38.05;;;19.48;;
58878;SDS011;44660;42.664;23.266;2023-02-15T04:54:19;47.53;;;24.08;;
58878;SDS011;44660;42.664;23.266;2023-02-15T04:56:44;32.67;;;18.73;;
58878;SDS011;44660;42.664;23.266;2023-02-15T04:59:10;37.05;;;18.40;;
58878;SDS011;44660;42.664;23.266;2023-02-15T05:01:36;33.03;;;17.73;;
58878;SDS011;44660;42.664;23.266;2023-02-15T05:04:01;35.80;;;18.85;;
58878;SDS011;44660;42.664;23.266;2023-02-15T05:06:27;34.72;;;18.35;;
58878;SDS011;44660;42.664;23.266;2023-02-15T05:08:53;33.13;;;18.48;;
58878;SDS011;44660;42.664;23.266;2023-02-15T05:11:18;37.08;;;19.70;;
58878;SDS011;44660;42.664;23.266;2023-02-15T05:13:44;37.90;;;19.30;;
58878;SDS011;44660;42.664;23.266;2023-02-15T05:16:10;35.00;;;19.10;;
58878;SDS011;44660;42.664;23.266;2023-02-15T05:18:35;35.20;;;18.95;;
58878;SDS011;44660;42.664;23.266;2023-02-15T05:21:01;36.45;;;18.27;;
58878;SDS011;44660;42.664;23.266;2023-02-15T05:23:26;34.05;;;19.00;;
58878;SDS011;44660;42.664;23.266;2023-02-15T05:25:52;35.63;;;18.85;;
58878;SDS011;44660;42.664;23.266;2023-02-15T05:28:36;37.20;;;19.75;;
58878;SDS011;44660;42.664;23.266;2023-02-15T05:33:33;31.80;;;18.77;;
58878;SDS011;44660;42.664;23.266;2023-02-15T05:35:59;35.63;;;18.73;;
58878;SDS011;44660;42.664;23.266;2023-02-15T05:38:25;33.30;;;18.33;;
58878;SDS011;44660;42.664;23.266;2023-02-15T05:40:51;34.75;;;18.35;;
58878;SDS011;44660;42.664;23.266;2023-02-15T05:43:16;37.45;;;18.63;;
58878;SDS011;44660;42.664;23.266;2023-02-15T05:45:48;34.83;;;19.15;;
58878;SDS011;44660;42.664;23.266;2023-02-15T05:48:15;32.38;;;18.23;;
58878;SDS011;44660;42.664;23.266;2023-02-15T05:50:42;35.30;;;19.67;;
58878;SDS011;44660;42.664;23.266;2023-02-15T05:53:07;35.63;;;19.42;;
58878;SDS011;44660;42.664;23.266;2023-02-15T05:55:33;37.63;;;18.52;;
58878;SDS011;44660;42.664;23.266;2023-02-15T05:57:58;35.30;;;19.15;;
58878;SDS011;44660;42.664;23.266;2023-02-15T06:00:23;37.10;;;19.73;;
58878;SDS011;44660;42.664;23.266;2023-02-15T06:02:50;36.15;;;18.92;;
58878;SDS011;44660;42.664;23.266;2023-02-15T06:05:15;39.70;;;20.52;;
58878;SDS011;44660;42.664;23.266;2023-02-15T06:07:44;39.00;;;20.40;;
58878;SDS011;44660;42.664;23.266;2023-02-15T06:10:10;42.42;;;22.50;;
58878;SDS011;44660;42.664;23.266;2023-02-15T06:12:35;34.42;;;18.50;;
58878;SDS011;44660;42.664;23.266;2023-02-15T06:15:01;40.08;;;18.80;;
58878;SDS011;44660;42.664;23.266;2023-02-15T06:17:27;34.83;;;17.95;;
58878;SDS011;44660;42.664;23.266;2023-02-15T06:19:53;35.55;;;17.42;;
58878;SDS011;44660;42.664;23.266;2023-02-15T06:22:18;32.70;;;17.27;;
58878;SDS011;44660;42.664;23.266;2023-02-15T06:24:45;32.47;;;17.48;;
58878;SDS011;44660;42.664;23.266;2023-02-15T06:27:11;33.08;;;17.30;;
58878;SDS011;44660;42.664;23.266;2023-02-15T06:29:36;32.35;;;17.30;;
58878;SDS011;44660;42.664;23.266;2023-02-15T06:32:02;32.53;;;17.55;;
58878;SDS011;44660;42.664;23.266;2023-02-15T06:34:28;30.95;;;16.83;;
58878;SDS011;44660;42.664;23.266;2023-02-15T06:36:53;31.95;;;17.05;;
58878;SDS011;44660;42.664;23.266;2023-02-15T06:39:19;33.17;;;16.65;;
58878;SDS011;44660;42.664;23.266;2023-02-15T06:41:44;28.17;;;15.10;;
58878;SDS011;44660;42.664;23.266;2023-02-15T06:44:10;30.98;;;17.55;;
58878;SDS011;44660;42.664;23.266;2023-02-15T06:46:35;29.83;;;16.17;;
58878;SDS011;44660;42.664;23.266;2023-02-15T06:49:01;29.30;;;16.48;;
58878;SDS011;44660;42.664;23.266;2023-02-15T06:51:26;31.67;;;16.15;;
58878;SDS011;44660;42.664;23.266;2023-02-15T06:53:52;30.70;;;16.48;;
58878;SDS011;44660;42.664;23.266;2023-02-15T06:56:17;31.02;;;16.35;;
58878;SDS011;44660;42.664;23.266;2023-02-15T06:58:43;35.08;;;18.83;;
58878;SDS011;44660;42.664;23.266;2023-02-15T07:01:10;31.77;;;16.98;;
58878;SDS011;44660;42.664;23.266;2023-02-15T07:03:36;29.30;;;16.80;;
58878;SDS011;44660;42.664;23.266;2023-02-15T07:06:02;24.65;;;14.45;;
58878;SDS011;44660;42.664;23.266;2023-02-15T07:08:30;27.60;;;14.52;;
58878;SDS011;44660;42.664;23.266;2023-02-15T07:10:56;31.55;;;15.15;;
58878;SDS011;44660;42.664;23.266;2023-02-15T07:13:44;25.27;;;14.05;;
58878;SDS011;44660;42.664;23.266;2023-02-15T07:16:11;26.45;;;14.70;;
58878;SDS011;44660;42.664;23.266;2023-02-15T07:18:37;25.42;;;14.77;;
58878;SDS011;44660;42.664;23.266;2023-02-15T07:21:03;24.65;;;14.02;;
58878;SDS011;44660;42.664;23.266;2023-02-15T07:23:29;32.28;;;15.52;;
58878;SDS011;44660;42.664;23.266;2023-02-15T07:25:58;23.40;;;13.43;;
58878;SDS011;44660;42.664;23.266;2023-02-15T07:28:24;23.92;;;13.75;;
58878;SDS011;44660;42.664;23.266;2023-02-15T07:30:50;26.55;;;13.88;;
58878;SDS011;44660;42.664;23.266;2023-02-15T07:33:15;22.38;;;13.55;;
58878;SDS011;44660;42.664;23.266;2023-02-15T07:35:56;23.55;;;13.15;;
58878;SDS011;44660;42.664;23.266;2023-02-15T07:38:24;24.10;;;13.57;;
58878;SDS011;44660;42.664;23.266;2023-02-15T07:40:51;24.20;;;13.40;;
58878;SDS011;44660;42.664;23.266;2023-02-15T07:43:16;24.38;;;13.32;;
58878;SDS011;44660;42.664;23.266;2023-02-15T07:45:42;25.23;;;13.43;;
58878;SDS011;44660;42.664;23.266;2023-02-15T07:48:07;24.13;;;12.68;;
58878;SDS011;44660;42.664;23.266;2023-02-15T07:50:33;23.70;;;13.23;;
58878;SDS011;44660;42.664;23.266;2023-02-15T07:53:00;21.88;;;13.25;;
58878;SDS011;44660;42.664;23.266;2023-02-15T07:55:27;25.35;;;13.57;;
58878;SDS011;44660;42.664;23.266;2023-02-15T07:57:52;30.42;;;16.30;;
58878;SDS011;44660;42.664;23.266;2023-02-15T08:00:19;35.35;;;18.65;;
58878;SDS011;44660;42.664;23.266;2023-02-15T08:02:53;26.83;;;15.13;;
58878;SDS011;44660;42.664;23.266;2023-02-15T08:05:42;24.48;;;13.50;;
58878;SDS011;44660;42.664;23.266;2023-02-15T08:08:09;25.38;;;13.38;;
58878;SDS011;44660;42.664;23.266;2023-02-15T08:13:54;22.58;;;13.32;;
58878;SDS011;44660;42.664;23.266;2023-02-15T08:16:25;23.55;;;12.95;;
58878;SDS011;44660;42.664;23.266;2023-02-15T08:18:53;23.23;;;13.38;;
58878;SDS011;44660;42.664;23.266;2023-02-15T08:21:19;23.77;;;13.52;;
58878;SDS011;44660;42.664;23.266;2023-02-15T08:23:46;25.58;;;14.35;;
58878;SDS011;44660;42.664;23.266;2023-02-15T08:26:11;28.75;;;14.35;;
58878;SDS011;44660;42.664;23.266;2023-02-15T08:28:37;26.77;;;15.10;;
58878;SDS011;44660;42.664;23.266;2023-02-15T08:31:07;22.05;;;12.48;;
58878;SDS011;44660;42.664;23.266;2023-02-15T08:33:37;23.27;;;12.63;;
58878;SDS011;44660;42.664;23.266;2023-02-15T08:36:46;20.73;;;12.38;;
58878;SDS011;44660;42.664;23.266;2023-02-15T08:38:54;21.38;;;11.90;;
58878;SDS011;44660;42.664;23.266;2023-02-15T08:41:26;27.55;;;13.23;;
58878;SDS011;44660;42.664;23.266;2023-02-15T08:43:57;23.10;;;13.43;;
58878;SDS011;44660;42.664;23.266;2023-02-15T08:46:27;25.08;;;13.07;;
58878;SDS011;44660;42.664;23.266;2023-02-15T08:48:54;30.55;;;16.52;;
58878;SDS011;44660;42.664;23.266;2023-02-15T08:51:21;26.17;;;15.50;;
58878;SDS011;44660;42.664;23.266;2023-02-15T08:53:49;52.35;;;27.92;;
58878;SDS011;44660;42.664;23.266;2023-02-15T08:56:17;25.92;;;14.82;;
58878;SDS011;44660;42.664;23.266;2023-02-15T08:58:43;26.10;;;14.02;;
58878;SDS011;44660;42.664;23.266;2023-02-15T09:01:10;28.48;;;14.75;;
58878;SDS011;44660;42.664;23.266;2023-02-15T09:03:37;27.20;;;14.65;;
58878;SDS011;44660;42.664;23.266;2023-02-15T09:06:03;26.42;;;15.05;;
58878;SDS011;44660;42.664;23.266;2023-02-15T09:08:28;27.70;;;14.98;;
58878;SDS011;44660;42.664;23.266;2023-02-15T09:11:07;23.65;;;13.82;;
58878;SDS011;44660;42.664;23.266;2023-02-15T09:13:54;26.65;;;15.05;;
58878;SDS011;44660;42.664;23.266;2023-02-15T09:16:22;26.13;;;14.48;;
58878;SDS011;44660;42.664;23.266;2023-02-15T09:18:49;28.83;;;15.82;;
58878;SDS011;44660;42.664;23.266;2023-02-15T09:21:17;27.90;;;16.08;;
58878;SDS011;44660;42.664;23.266;2023-02-15T09:23:44;27.23;;;14.85;;
58878;SDS011;44660;42.664;23.266;2023-02-15T09:26:12;28.25;;;16.25;;
58878;SDS011;44660;42.664;23.266;2023-02-15T09:28:39;28.17;;;15.68;;
58878;SDS011;44660;42.664;23.266;2023-02-15T09:31:06;37.67;;;17.05;;
58878;SDS011;44660;42.664;23.266;2023-02-15T09:33:41;28.65;;;14.98;;
58878;SDS011;44660;42.664;23.266;2023-02-15T09:36:41;27.05;;;14.90;;
58878;SDS011;44660;42.664;23.266;2023-02-15T09:39:03;25.83;;;14.75;;
58878;SDS011;44660;42.664;23.266;2023-02-15T09:41:41;26.95;;;14.70;;
58878;SDS011;44660;42.664;23.266;2023-02-15T09:57:53;23.98;;;14.63;;
58878;SDS011;44660;42.664;23.266;2023-02-15T10:22:42;27.60;;;15.35;;
58878;SDS011;44660;42.664;23.266;2023-02-15T10:27:45;25.65;;;14.60;;
58878;SDS011;44660;42.664;23.266;2023-02-15T10:30:15;22.85;;;14.40;;
58878;SDS011;44660;42.664;23.266;2023-02-15T10:32:56;25.80;;;15.57;;
58878;SDS011;44660;42.664;23.266;2023-02-15T10:41:03;28.35;;;15.82;;
58878;SDS011;44660;42.664;23.266;2023-02-15T10:54:42;26.42;;;15.15;;
58878;SDS011;44660;42.664;23.266;2023-02-15T11:00:20;30.05;;;16.63;;
58878;SDS011;44660;42.664;23.266;2023-02-15T11:05:41;29.30;;;17.13;;
58878;SDS011;44660;42.664;23.266;2023-02-15T11:08:21;22.55;;;14.02;;
58878;SDS011;44660;42.664;23.266;2023-02-15T11:10:54;25.77;;;15.40;;
58878;SDS011;44660;42.664;23.266;2023-02-15T11:13:23;27.27;;;16.38;;
58878;SDS011;44660;42.664;23.266;2023-02-15T11:21:29;26.65;;;16.55;;
58878;SDS011;44660;42.664;23.266;2023-02-15T11:24:13;25.70;;;16.13;;
58878;SDS011;44660;42.664;23.266;2023-02-15T11:26:47;26.23;;;16.33;;
58878;SDS011;44660;42.664;23.266;2023-02-15T11:32:02;24.83;;;15.18;;
58878;SDS011;44660;42.664;23.266;2023-02-15T11:34:38;24.73;;;15.32;;
58878;SDS011;44660;42.664;23.266;2023-02-15T11:37:12;24.38;;;14.52;;
58878;SDS011;44660;42.664;23.266;2023-02-15T11:39:43;25.55;;;15.77;;
58878;SDS011;44660;42.664;23.266;2023-02-15T11:42:16;26.17;;;15.77;;
58878;SDS011;44660;42.664;23.266;2023-02-15T11:44:56;24.48;;;16.08;;
58878;SDS011;44660;42.664;23.266;2023-02-15T11:47:29;22.95;;;14.90;;
58878;SDS011;44660;42.664;23.266;2023-02-15T11:49:54;26.65;;;16.20;;
58878;SDS011;44660;42.664;23.266;2023-02-15T11:52:20;22.65;;;14.95;;
58878;SDS011;44660;42.664;23.266;2023-02-15T11:54:46;23.55;;;15.07;;
58878;SDS011;44660;42.664;23.266;2023-02-15T11:59:47;27.58;;;15.90;;
58878;SDS011;44660;42.664;23.266;2023-02-15T12:02:33;22.52;;;14.77;;
58878;SDS011;44660;42.664;23.266;2023-02-15T12:05:06;24.00;;;15.88;;
58878;SDS011;44660;42.664;23.266;2023-02-15T12:07:46;22.00;;;15.23;;
58878;SDS011;44660;42.664;23.266;2023-02-15T12:10:24;25.75;;;15.43;;
58878;SDS011;44660;42.664;23.266;2023-02-15T12:13:14;23.45;;;15.30;;
58878;SDS011;44660;42.664;23.266;2023-02-15T12:15:45;23.63;;;15.80;;
58878;SDS011;44660;42.664;23.266;2023-02-15T12:18:20;27.52;;;16.13;;
58878;SDS011;44660;42.664;23.266;2023-02-15T12:21:00;23.55;;;16.17;;
58878;SDS011;44660;42.664;23.266;2023-02-15T12:23:30;27.42;;;16.13;;
58878;SDS011;44660;42.664;23.266;2023-02-15T12:25:57;27.20;;;17.15;;
58878;SDS011;44660;42.664;23.266;2023-02-15T12:28:31;26.75;;;16.17;;
58878;SDS011;44660;42.664;23.266;2023-02-15T12:31:00;24.88;;;16.85;;
58878;SDS011;44660;42.664;23.266;2023-02-15T12:33:29;24.90;;;16.95;;
58878;SDS011;44660;42.664;23.266;2023-02-15T12:38:35;25.08;;;16.38;;
58878;SDS011;44660;42.664;23.266;2023-02-15T12:41:05;24.45;;;16.83;;
58878;SDS011;44660;42.664;23.266;2023-02-15T12:46:40;27.90;;;17.48;;
58878;SDS011;44660;42.664;23.266;2023-02-15T12:54:43;26.00;;;16.58;;
58878;SDS011;44660;42.664;23.266;2023-02-15T12:57:14;24.48;;;15.65;;
58878;SDS011;44660;42.664;23.266;2023-02-15T12:59:49;25.92;;;16.40;;
58878;SDS011;44660;42.664;23.266;2023-02-15T13:04:53;28.27;;;17.27;;
58878;SDS011;44660;42.664;23.266;2023-02-15T13:07:21;27.33;;;17.10;;
58878;SDS011;44660;42.664;23.266;2023-02-15T13:09:46;26.48;;;17.63;;
58878;SDS011;44660;42.664;23.266;2023-02-15T13:12:24;25.77;;;17.17;;
58878;SDS011;44660;42.664;23.266;2023-02-15T13:14:57;25.92;;;16.95;;
58878;SDS011;44660;42.664;23.266;2023-02-15T13:17:30;26.13;;;17.63;;
58878;SDS011;44660;42.664;23.266;2023-02-15T13:20:05;27.52;;;18.08;;
58878;SDS011;44660;42.664;23.266;2023-02-15T13:22:42;29.08;;;17.67;;
58878;SDS011;44660;42.664;23.266;2023-02-15T13:25:14;29.70;;;18.25;;
58878;SDS011;44660;42.664;23.266;2023-02-15T13:27:44;31.88;;;19.77;;
58878;SDS011;44660;42.664;23.266;2023-02-15T13:30:16;24.13;;;16.85;;
58878;SDS011;44660;42.664;23.266;2023-02-15T13:32:48;27.17;;;16.45;;
58878;SDS011;44660;42.664;23.266;2023-02-15T13:35:16;27.30;;;18.67;;
58878;SDS011;44660;42.664;23.266;2023-02-15T13:46:18;27.83;;;17.10;;
58878;SDS011;44660;42.664;23.266;2023-02-15T13:54:50;27.45;;;16.65;;
58878;SDS011;44660;42.664;23.266;2023-02-15T14:00:03;26.58;;;17.75;;
58878;SDS011;44660;42.664;23.266;2023-02-15T14:11:01;27.65;;;17.30;;
58878;SDS011;44660;42.664;23.266;2023-02-15T14:21:52;30.85;;;18.08;;
58878;SDS011;44660;42.664;23.266;2023-02-15T14:24:33;30.30;;;18.47;;
58878;SDS011;44660;42.664;23.266;2023-02-15T14:27:23;30.58;;;18.85;;
58878;SDS011;44660;42.664;23.266;2023-02-15T14:30:02;32.33;;;18.10;;
58878;SDS011;44660;42.664;23.266;2023-02-15T14:32:42;31.58;;;19.38;;
58878;SDS011;44660;42.664;23.266;2023-02-15T14:35:16;32.80;;;19.05;;
58878;SDS011;44660;42.664;23.266;2023-02-15T14:40:36;35.70;;;21.08;;
58878;SDS011;44660;42.664;23.266;2023-02-15T14:51:53;34.28;;;20.92;;
58878;SDS011;44660;42.664;23.266;2023-02-15T14:57:20;35.67;;;20.40;;
58878;SDS011;44660;42.664;23.266;2023-02-15T15:01:58;30.90;;;19.48;;
58878;SDS011;44660;42.664;23.266;2023-02-15T15:04:33;44.83;;;21.83;;
58878;SDS011;44660;42.664;23.266;2023-02-15T15:09:37;32.50;;;20.08;;
58878;SDS011;44660;42.664;23.266;2023-02-15T15:14:46;33.47;;;19.00;;
58878;SDS011;44660;42.664;23.266;2023-02-15T15:17:51;35.63;;;20.52;;
58878;SDS011;44660;42.664;23.266;2023-02-15T15:20:13;37.55;;;20.02;;
58878;SDS011;44660;42.664;23.266;2023-02-15T15:28:06;48.40;;;32.50;;
58878;SDS011;44660;42.664;23.266;2023-02-15T15:32:59;41.90;;;22.98;;
58878;SDS011;44660;42.664;23.266;2023-02-15T15:49:29;44.65;;;25.02;;
58878;SDS011;44660;42.664;23.266;2023-02-15T15:52:00;43.17;;;23.67;;
58878;SDS011;44660;42.664;23.266;2023-02-15T15:54:27;39.70;;;23.02;;
58878;SDS011;44660;42.664;23.266;2023-02-15T15:57:00;41.60;;;22.30;;
58878;SDS011;44660;42.664;23.266;2023-02-15T15:59:29;38.13;;;20.77;;
58878;SDS011;44660;42.664;23.266;2023-02-15T16:02:05;37.90;;;21.40;;
58878;SDS011;44660;42.664;23.266;2023-02-15T16:04:32;40.28;;;22.23;;
58878;SDS011;44660;42.664;23.266;2023-02-15T16:09:53;43.65;;;22.60;;
58878;SDS011;44660;42.664;23.266;2023-02-15T16:12:19;40.22;;;22.25;;
58878;SDS011;44660;42.664;23.266;2023-02-15T16:14:45;39.75;;;23.05;;
58878;SDS011;44660;42.664;23.266;2023-02-15T16:17:25;39.97;;;22.85;;
58878;SDS011;44660;42.664;23.266;2023-02-15T16:20:03;47.20;;;24.60;;
58878;SDS011;44660;42.664;23.266;2023-02-15T16:23:04;47.15;;;25.45;;
58878;SDS011;44660;42.664;23.266;2023-02-15T16:25:38;44.30;;;24.75;;
58878;SDS011;44660;42.664;23.266;2023-02-15T16:28:07;46.47;;;25.50;;
58878;SDS011;44660;42.664;23.266;2023-02-15T16:30:36;48.05;;;26.08;;
58878;SDS011;44660;42.664;23.266;2023-02-15T16:33:06;41.78;;;23.52;;
58878;SDS011;44660;42.664;23.266;2023-02-15T16:35:37;48.25;;;25.52;;
58878;SDS011;44660;42.664;23.266;2023-02-15T16:38:04;46.40;;;25.42;;
58878;SDS011;44660;42.664;23.266;2023-02-15T16:40:34;43.22;;;22.98;;
58878;SDS011;44660;42.664;23.266;2023-02-15T16:43:06;40.08;;;22.88;;
58878;SDS011;44660;42.664;23.266;2023-02-15T16:45:39;42.88;;;24.58;;
58878;SDS011;44660;42.664;23.266;2023-02-15T16:48:06;37.28;;;22.20;;
58878;SDS011;44660;42.664;23.266;2023-02-15T16:50:38;45.67;;;24.65;;
58878;SDS011;44660;42.664;23.266;2023-02-15T16:53:04;46.05;;;23.85;;
58878;SDS011;44660;42.664;23.266;2023-02-15T16:55:35;49.50;;;24.48;;
58878;SDS011;44660;42.664;23.266;2023-02-15T16:58:06;59.38;;;26.55;;
58878;SDS011;44660;42.664;23.266;2023-02-15T17:00:36;59.25;;;27.90;;
58878;SDS011;44660;42.664;23.266;2023-02-15T17:05:46;54.08;;;26.38;;
58878;SDS011;44660;42.664;23.266;2023-02-15T17:13:37;50.90;;;24.85;;
58878;SDS011;44660;42.664;23.266;2023-02-15T17:18:50;50.40;;;25.33;;
58878;SDS011;44660;42.664;23.266;2023-02-15T17:21:18;46.22;;;25.20;;
58878;SDS011;44660;42.664;23.266;2023-02-15T17:23:49;47.00;;;24.73;;
58878;SDS011;44660;42.664;23.266;2023-02-15T17:26:24;51.95;;;26.25;;
58878;SDS011;44660;42.664;23.266;2023-02-15T17:28:58;52.17;;;28.38;;
58878;SDS011;44660;42.664;23.266;2023-02-15T17:31:26;67.40;;;33.80;;
58878;SDS011;44660;42.664;23.266;2023-02-15T17:33:57;51.90;;;29.25;;
58878;SDS011;44660;42.664;23.266;2023-02-15T17:36:24;53.75;;;29.02;;
58878;SDS011;44660;42.664;23.266;2023-02-15T17:41:23;88.50;;;47.55;;
58878;SDS011;44660;42.664;23.266;2023-02-15T17:43:49;59.70;;;33.67;;
58878;SDS011;44660;42.664;23.266;2023-02-15T17:46:15;45.17;;;26.35;;
58878;SDS011;44660;42.664;23.266;2023-02-15T17:48:43;41.72;;;22.25;;
58878;SDS011;44660;42.664;23.266;2023-02-15T17:51:12;36.60;;;20.13;;
58878;SDS011;44660;42.664;23.266;2023-02-15T17:53:39;37.30;;;20.13;;